createdAt,value
2022-09-24T04:31:19.374Z,13.30
2022-09-24T04:33:46.181Z,13.30
2022-09-24T04:36:12.944Z,13.40
2022-09-24T04:38:40.340Z,13.30
2022-09-24T04:41:08.338Z,13.30
2022-09-24T04:43:36.957Z,13.30
2022-09-24T04:46:04.798Z,13.30
2022-09-24T04:48:32.246Z,13.30
2022-09-24T04:50:58.967Z,13.30
2022-09-24T04:53:25.900Z,13.30
2022-09-24T04:55:52.552Z,13.40
2022-09-24T04:58:19.286Z,13.30
2022-09-24T05:00:45.985Z,13.30
2022-09-24T05:03:12.952Z,13.30
2022-09-24T05:05:39.723Z,13.30
2022-09-24T05:08:06.479Z,13.30
2022-09-24T05:10:33.387Z,13.30
2022-09-24T05:13:00.958Z,13.40
2022-09-24T05:15:27.712Z,13.40
2022-09-24T05:17:54.571Z,13.40
2022-09-24T05:20:21.382Z,13.40
2022-09-24T05:22:49.510Z,13.30
2022-09-24T05:25:18.671Z,13.30
2022-09-24T05:27:46.683Z,13.40
2022-09-24T05:30:14.665Z,13.40
2022-09-24T05:32:42.107Z,13.40
2022-09-24T05:35:09.588Z,13.40
2022-09-24T05:37:37.420Z,13.50
2022-09-24T05:40:24.126Z,13.50
2022-09-24T05:42:51.739Z,13.60
2022-09-24T05:45:18.754Z,13.50
2022-09-24T05:47:46.077Z,13.60
2022-09-24T05:50:15.842Z,13.60
2022-09-24T05:52:42.781Z,13.70
2022-09-24T05:55:10.567Z,13.60
2022-09-24T05:57:37.484Z,13.70
2022-09-24T06:00:05.449Z,13.70
2022-09-24T06:02:32.179Z,13.70
2022-09-24T06:04:58.945Z,13.70
2022-09-24T06:07:25.584Z,13.70
2022-09-24T06:09:52.253Z,13.70
2022-09-24T06:12:19.572Z,13.70
2022-09-24T06:14:46.230Z,13.70
2022-09-24T06:17:12.861Z,13.70
2022-09-24T06:19:39.491Z,13.70
2022-09-24T06:22:06.180Z,13.70
2022-09-24T06:24:32.841Z,13.80
2022-09-24T06:26:59.486Z,13.70
2022-09-24T06:29:26.104Z,13.80
2022-09-24T06:31:53.650Z,13.80
2022-09-24T06:34:20.288Z,13.70
2022-09-24T06:36:46.978Z,13.80
2022-09-24T06:39:13.600Z,13.80
2022-09-24T06:41:40.302Z,13.60
2022-09-24T06:44:06.930Z,13.70
2022-09-24T06:46:33.605Z,13.60
2022-09-24T06:49:00.516Z,13.60
2022-09-24T06:51:27.147Z,13.60
2022-09-24T06:53:53.773Z,13.60
2022-09-24T06:56:20.623Z,13.70
2022-09-24T06:58:47.324Z,13.80
2022-09-24T07:01:13.995Z,13.80
2022-09-24T07:03:40.728Z,13.90
2022-09-24T07:06:07.680Z,13.90
2022-09-24T07:08:34.473Z,14.00
2022-09-24T07:11:02.193Z,14.00
2022-09-24T07:13:28.974Z,13.90
2022-09-24T07:15:55.711Z,14.00
2022-09-24T07:18:23.010Z,13.90
2022-09-24T07:20:56.822Z,13.90
2022-09-24T07:23:23.956Z,14.10
2022-09-24T07:25:55.217Z,14.10
2022-09-24T07:28:21.874Z,14.10
2022-09-24T07:30:56.770Z,14.20
2022-09-24T07:33:23.450Z,14.10
2022-09-24T07:35:51.047Z,14.20
2022-09-24T07:38:17.782Z,14.30
2022-09-24T07:40:44.881Z,14.30
2022-09-24T07:43:13.873Z,14.40
2022-09-24T07:45:42.334Z,14.40
2022-09-24T07:48:10.581Z,14.40
2022-09-24T07:50:42.278Z,14.40
2022-09-24T07:53:11.802Z,14.50
2022-09-24T07:55:41.389Z,14.50
2022-09-24T07:58:10.899Z,14.60
2022-09-24T08:00:37.796Z,14.60
2022-09-24T08:03:05.618Z,14.50
2022-09-24T08:05:33.077Z,14.40
2022-09-24T08:07:59.890Z,14.30
2022-09-24T08:10:28.525Z,14.20
2022-09-24T08:12:57.141Z,14.10
2022-09-24T08:15:23.926Z,14.10
2022-09-24T08:17:51.177Z,14.20
2022-09-24T08:20:18.150Z,14.20
2022-09-24T08:22:45.164Z,14.10
2022-09-24T08:25:11.940Z,14.00
2022-09-24T08:27:38.876Z,14.00
2022-09-24T08:30:06.610Z,13.90
2022-09-24T08:32:33.301Z,13.90
2022-09-24T08:35:00.035Z,13.90
2022-09-24T08:37:28.295Z,13.90
2022-09-24T08:39:55.393Z,14.00
2022-09-24T08:42:40.335Z,14.10
2022-09-24T08:45:28.144Z,14.10
2022-09-24T08:48:06.445Z,14.10
2022-09-24T08:50:35.992Z,14.10
2022-09-24T08:53:31.598Z,14.10
2022-09-24T08:56:02.080Z,14.20
2022-09-24T08:58:50.961Z,14.30
2022-09-24T09:01:39.381Z,14.40
2022-09-24T09:04:21.014Z,14.60
2022-09-24T09:07:06.788Z,14.60
2022-09-24T09:09:52.133Z,14.60
2022-09-24T09:12:37.025Z,14.70
2022-09-24T09:15:19.156Z,14.90
2022-09-24T09:18:13.118Z,14.90
2022-09-24T09:20:45.111Z,15.10
2022-09-24T09:23:28.457Z,15.10
2022-09-24T09:25:57.533Z,15.00
2022-09-24T09:28:26.753Z,15.00
2022-09-24T09:30:56.515Z,15.00
2022-09-24T09:33:53.922Z,15.00
2022-09-24T09:36:57.517Z,15.10
2022-09-24T09:39:37.361Z,15.10
2022-09-24T09:42:28.031Z,15.20
2022-09-24T09:44:55.174Z,15.30
2022-09-24T09:47:31.532Z,15.30
2022-09-24T09:50:24.393Z,15.50
2022-09-24T09:52:51.267Z,15.80
2022-09-24T09:55:34.274Z,16.10
2022-09-24T09:58:15.886Z,16.10
2022-09-24T10:00:42.839Z,15.90
2022-09-24T10:03:28.753Z,15.70
2022-09-24T10:05:59.196Z,15.50
2022-09-24T10:08:26.909Z,15.60
2022-09-24T10:10:57.861Z,15.60
2022-09-24T10:13:25.841Z,15.60
2022-09-24T10:15:58.448Z,15.50
2022-09-24T10:18:35.490Z,15.40
2022-09-24T10:21:08.353Z,15.40
2022-09-24T10:23:43.540Z,15.30
2022-09-24T10:26:11.008Z,15.40
2022-09-24T10:29:05.873Z,15.50
2022-09-24T10:31:37.632Z,15.60
2022-09-24T10:34:17.612Z,15.60
2022-09-24T10:36:52.925Z,15.70
2022-09-24T10:39:21.436Z,15.70
2022-09-24T10:41:50.156Z,15.80
2022-09-24T10:44:18.517Z,15.90
2022-09-24T10:47:22.314Z,16.20
2022-09-24T10:50:24.352Z,16.30
2022-09-24T10:52:54.567Z,16.50
2022-09-24T10:55:47.218Z,16.60
2022-09-24T10:58:26.158Z,16.80
2022-09-24T11:00:59.678Z,17.40
2022-09-24T11:03:32.334Z,17.40
2022-09-24T11:06:11.233Z,17.20
2022-09-24T11:09:15.324Z,16.90
2022-09-24T11:11:56.924Z,16.60
2022-09-24T11:14:54.514Z,16.40
2022-09-24T11:17:21.105Z,16.50
2022-09-24T11:19:50.544Z,16.40
2022-09-24T11:22:25.894Z,16.20
2022-09-24T11:25:29.854Z,16.30
2022-09-24T11:28:17.645Z,16.30
2022-09-24T11:31:16.485Z,16.40
2022-09-24T11:34:05.669Z,16.80
2022-09-24T11:36:41.326Z,16.90
2022-09-24T11:39:34.127Z,16.70
2022-09-24T11:42:19.741Z,16.70
2022-09-24T11:45:13.166Z,16.70
2022-09-24T11:47:57.809Z,16.70
2022-09-24T11:50:35.404Z,16.70
2022-09-24T11:53:11.875Z,16.70
2022-09-24T11:55:53.678Z,16.80
2022-09-24T11:59:09.339Z,16.80
2022-09-24T12:01:40.523Z,17.00
2022-09-24T12:04:24.595Z,16.90
2022-09-24T12:06:58.804Z,16.80
2022-09-24T12:09:43.834Z,16.60
2022-09-24T12:12:20.713Z,16.70
2022-09-24T12:14:56.246Z,16.80
2022-09-24T12:17:44.613Z,16.80
2022-09-24T12:20:29.454Z,16.90
2022-09-24T12:23:09.438Z,16.90
2022-09-24T12:25:45.143Z,16.90
2022-09-24T12:28:39.059Z,16.70
2022-09-24T12:32:06.906Z,16.50
2022-09-24T12:34:44.834Z,16.40
2022-09-24T12:37:16.703Z,16.30
2022-09-24T12:39:59.875Z,16.30
2022-09-24T12:42:35.634Z,16.40
2022-09-24T12:45:03.602Z,16.50
2022-09-24T12:47:35.122Z,16.60
2022-09-24T12:50:05.439Z,16.60
2022-09-24T12:52:39.158Z,16.70
2022-09-24T12:55:18.442Z,17.00
2022-09-24T12:57:55.076Z,17.10
2022-09-24T13:00:37.975Z,16.90
2022-09-24T13:03:06.519Z,16.80
2022-09-24T13:05:46.470Z,16.80
2022-09-24T13:08:22.217Z,16.90
2022-09-24T13:11:05.826Z,16.80
2022-09-24T13:13:36.362Z,16.70
2022-09-24T13:16:07.336Z,16.50
2022-09-24T13:18:36.076Z,16.40
2022-09-24T13:21:18.618Z,16.20
2022-09-24T13:23:48.631Z,16.10
2022-09-24T13:26:24.197Z,16.20
2022-09-24T13:29:00.847Z,16.20
2022-09-24T13:31:27.525Z,16.20
2022-09-24T13:33:58.840Z,16.20
2022-09-24T13:37:07.214Z,16.30
2022-09-24T13:39:51.770Z,16.40
2022-09-24T13:42:39.785Z,16.40
2022-09-24T13:45:11.566Z,16.20
2022-09-24T13:47:46.695Z,16.30
2022-09-24T13:50:33.795Z,16.30
2022-09-24T13:53:12.841Z,16.50
2022-09-24T13:55:48.365Z,16.50
2022-09-24T13:58:43.003Z,16.40
2022-09-24T14:01:23.200Z,16.20
2022-09-24T14:04:02.612Z,16.00
2022-09-24T14:06:39.890Z,15.90
2022-09-24T14:09:26.023Z,15.90
2022-09-24T14:11:55.147Z,15.80
2022-09-24T14:14:24.418Z,15.80
2022-09-24T14:16:55.069Z,15.80
2022-09-24T14:19:23.386Z,15.80
2022-09-24T14:21:55.055Z,15.70
2022-09-24T14:24:33.764Z,15.80
2022-09-24T14:27:10.212Z,15.70
2022-09-24T14:29:43.961Z,15.60
2022-09-24T14:32:22.967Z,15.60
2022-09-24T14:34:53.358Z,15.70
2022-09-24T14:37:51.317Z,15.60
2022-09-24T14:40:21.797Z,15.60
2022-09-24T14:42:53.586Z,15.70
2022-09-24T14:45:34.829Z,15.70
2022-09-24T14:48:03.468Z,15.60
2022-09-24T14:50:30.198Z,15.50
2022-09-24T14:52:57.893Z,15.50
2022-09-24T14:55:38.163Z,15.50
2022-09-24T14:58:04.905Z,15.60
2022-09-24T15:00:46.301Z,15.80
2022-09-24T15:03:19.392Z,16.30
2022-09-24T15:05:46.615Z,16.70
2022-09-24T15:08:22.338Z,16.90
2022-09-24T15:10:53.980Z,17.00
2022-09-24T15:13:26.805Z,17.00
2022-09-24T15:16:26.365Z,16.90
2022-09-24T15:19:12.282Z,16.90
2022-09-24T15:21:39.234Z,16.80
2022-09-24T15:24:06.020Z,16.60
2022-09-24T15:26:36.050Z,16.70
2022-09-24T15:29:03.814Z,16.70
2022-09-24T15:31:31.416Z,16.60
2022-09-24T15:33:58.483Z,16.50
2022-09-24T15:36:25.403Z,16.50
2022-09-24T15:38:54.274Z,16.60
2022-09-24T15:41:20.922Z,16.70
2022-09-24T15:43:47.674Z,16.60
2022-09-24T15:46:14.408Z,16.50
2022-09-24T15:48:41.129Z,16.20
2022-09-24T15:51:15.023Z,16.20
2022-09-24T15:53:42.452Z,16.20
2022-09-24T15:56:09.165Z,16.20
2022-09-24T15:58:36.008Z,16.20
2022-09-24T16:01:03.092Z,16.30
2022-09-24T16:03:32.269Z,16.20
2022-09-24T16:06:00.519Z,16.20
2022-09-24T16:08:27.258Z,16.20
2022-09-24T16:10:53.921Z,16.20
2022-09-24T16:13:23.208Z,16.20
2022-09-24T16:15:50.004Z,16.20
2022-09-24T16:18:22.174Z,16.30
2022-09-24T16:20:49.827Z,16.30
2022-09-24T16:23:16.954Z,16.30
2022-09-24T16:25:55.618Z,16.30
2022-09-24T16:28:22.595Z,16.30
2022-09-24T16:30:49.314Z,16.30
2022-09-24T16:33:16.201Z,16.30
2022-09-24T16:35:42.945Z,16.20
2022-09-24T16:38:09.608Z,16.30
2022-09-24T16:40:36.491Z,16.30
2022-09-24T16:43:03.617Z,16.30
2022-09-24T16:45:32.013Z,16.30
2022-09-24T16:47:58.946Z,16.20
2022-09-24T16:50:26.333Z,16.00
2022-09-24T16:52:55.293Z,15.90
2022-09-24T16:55:26.356Z,15.90
2022-09-24T16:57:53.262Z,15.80
2022-09-24T17:00:20.330Z,15.80
2022-09-24T17:02:47.132Z,15.90
2022-09-24T17:05:13.907Z,15.70
2022-09-24T17:07:40.690Z,15.50
2022-09-24T17:10:18.372Z,15.40
2022-09-24T17:12:48.638Z,15.20
2022-09-24T17:15:19.247Z,15.10
2022-09-24T17:17:50.281Z,15.10
2022-09-24T17:20:18.137Z,15.20
2022-09-24T17:22:45.124Z,15.20
2022-09-24T17:25:11.794Z,15.30
2022-09-24T17:27:39.987Z,15.20
2022-09-24T17:30:07.513Z,15.10
2022-09-24T17:32:34.249Z,15.10
2022-09-24T17:35:00.925Z,15.10
2022-09-24T17:37:27.811Z,15.10
2022-09-24T17:39:54.619Z,15.10
2022-09-24T17:42:21.358Z,15.10
2022-09-24T17:44:48.016Z,15.10
2022-09-24T17:47:14.703Z,15.10
2022-09-24T17:49:41.450Z,15.00
2022-09-24T17:52:08.367Z,14.90
2022-09-24T17:54:35.072Z,14.90
2022-09-24T17:57:01.987Z,14.90
2022-09-24T17:59:28.891Z,14.90
2022-09-24T18:01:55.802Z,14.90
2022-09-24T18:04:22.994Z,14.80
2022-09-24T18:06:50.197Z,14.80
2022-09-24T18:09:18.686Z,14.70
2022-09-24T18:11:51.405Z,14.70
2022-09-24T18:14:22.526Z,14.70
2022-09-24T18:16:50.114Z,14.70
2022-09-24T18:19:17.469Z,14.60
2022-09-24T18:21:45.887Z,14.50
2022-09-24T18:24:12.986Z,14.50
2022-09-24T18:26:40.378Z,14.60
2022-09-24T18:29:17.615Z,14.50
2022-09-24T18:31:44.811Z,14.60
2022-09-24T18:34:14.736Z,14.50
2022-09-24T18:36:43.010Z,14.50
2022-09-24T18:39:13.239Z,14.50
2022-09-24T18:41:41.524Z,14.50
2022-09-24T18:44:09.018Z,14.50
2022-09-24T18:46:35.817Z,14.50
2022-09-24T18:49:03.082Z,14.50
2022-09-24T18:51:32.331Z,14.40
2022-09-24T18:54:03.242Z,14.40
2022-09-24T18:56:31.217Z,14.50
2022-09-24T18:59:08.470Z,14.50
2022-09-24T19:01:35.559Z,14.50
2022-09-24T19:04:03.165Z,14.40
2022-09-24T19:06:31.126Z,14.50
2022-09-24T19:08:57.858Z,14.50
2022-09-24T19:11:24.572Z,14.50
2022-09-24T19:13:53.830Z,14.50
2022-09-24T19:16:25.910Z,14.50
2022-09-24T19:18:53.889Z,14.50
2022-09-24T19:21:23.030Z,14.50
2022-09-24T19:23:51.983Z,14.50
2022-09-24T19:26:30.625Z,14.40
2022-09-24T19:28:57.767Z,14.40
2022-09-24T19:31:25.846Z,14.30
2022-09-24T19:33:54.338Z,14.30
2022-09-24T19:36:22.202Z,14.30
2022-09-24T19:38:50.131Z,14.30
2022-09-24T19:41:21.475Z,14.30
2022-09-24T19:43:50.857Z,14.40
2022-09-24T19:46:19.178Z,14.40
2022-09-24T19:48:48.433Z,14.40
2022-09-24T19:51:23.187Z,14.40
2022-09-24T19:53:52.114Z,14.40
2022-09-24T19:56:23.296Z,14.40
2022-09-24T19:58:52.635Z,14.30
2022-09-24T20:01:21.084Z,14.30
2022-09-24T20:03:48.193Z,14.20
2022-09-24T20:06:20.841Z,14.20
2022-09-24T20:08:47.573Z,14.20
2022-09-24T20:11:20.764Z,14.20
2022-09-24T20:13:52.687Z,14.20
2022-09-24T20:16:22.179Z,14.20
2022-09-24T20:18:50.785Z,14.10
2022-09-24T20:21:19.033Z,14.00
2022-09-24T20:23:47.161Z,14.00
2022-09-24T20:26:33.980Z,13.90
2022-09-24T20:29:02.074Z,14.00
2022-09-24T20:31:29.871Z,13.80
2022-09-24T20:33:56.792Z,13.80
2022-09-24T20:36:24.625Z,13.70
2022-09-24T20:38:52.622Z,13.70
2022-09-24T20:41:22.768Z,13.60
2022-09-24T20:43:50.435Z,13.70
2022-09-24T20:46:21.952Z,13.60
2022-09-24T20:48:48.863Z,13.60
2022-09-24T20:51:18.125Z,13.50
2022-09-24T20:53:46.317Z,13.40
2022-09-24T20:56:13.977Z,13.30
2022-09-24T20:58:41.074Z,13.10
2022-09-24T21:01:09.586Z,13.10
2022-09-24T21:03:46.155Z,13.20
2022-09-24T21:06:14.960Z,13.10
2022-09-24T21:08:43.635Z,13.00
2022-09-24T21:11:21.822Z,13.00
2022-09-24T21:13:51.573Z,13.00
2022-09-24T21:16:21.262Z,12.90
2022-09-24T21:18:49.563Z,12.90
2022-09-24T21:21:24.757Z,12.80
2022-09-24T21:23:53.518Z,12.80
2022-09-24T21:26:30.757Z,12.70
2022-09-24T21:29:10.106Z,12.60
2022-09-24T21:31:38.625Z,12.60
2022-09-24T21:34:06.967Z,12.60
2022-09-24T21:36:42.969Z,12.40
2022-09-24T21:39:26.806Z,12.30
2022-09-24T21:41:55.332Z,12.20
2022-09-24T21:44:22.266Z,12.10
2022-09-24T21:46:52.539Z,12.20
2022-09-24T21:49:19.918Z,12.20
2022-09-24T21:51:46.837Z,12.20
2022-09-24T21:54:17.032Z,12.20
2022-09-24T21:56:44.911Z,12.20
2022-09-24T21:59:30.644Z,12.20
2022-09-24T22:01:58.909Z,12.10
2022-09-24T22:04:27.334Z,12.00
2022-09-24T22:06:54.368Z,12.10
2022-09-24T22:09:21.466Z,12.00
2022-09-24T22:11:48.518Z,12.00
2022-09-24T22:14:15.261Z,12.00
2022-09-24T22:16:42.070Z,11.90
2022-09-24T22:19:11.967Z,11.90
2022-09-24T22:21:38.642Z,11.80
2022-09-24T22:24:05.454Z,11.80
2022-09-24T22:26:32.861Z,11.70
2022-09-24T22:29:01.379Z,11.80
2022-09-24T22:31:28.088Z,11.80
2022-09-24T22:34:13.776Z,11.80
2022-09-24T22:36:40.530Z,11.70
2022-09-24T22:39:07.758Z,11.50
2022-09-24T22:41:40.219Z,11.50
2022-09-24T22:44:07.415Z,11.50
2022-09-24T22:46:36.338Z,11.40
2022-09-24T22:49:04.470Z,11.40
2022-09-24T22:51:31.471Z,11.40
2022-09-24T22:53:59.680Z,11.40
2022-09-24T22:56:27.559Z,11.40
2022-09-24T22:59:00.207Z,11.40
2022-09-24T23:01:38.528Z,11.40
2022-09-24T23:04:06.091Z,11.30
2022-09-24T23:06:33.918Z,11.30
2022-09-24T23:09:01.380Z,11.30
2022-09-24T23:11:30.606Z,11.20
2022-09-24T23:13:59.710Z,11.10
2022-09-24T23:16:28.861Z,11.00
2022-09-24T23:18:58.091Z,10.90
2022-09-24T23:21:28.393Z,10.90
2022-09-24T23:23:57.176Z,10.90
2022-09-24T23:26:25.142Z,10.90
2022-09-24T23:28:53.049Z,10.90
